Time;durP1;ratioP1;P1;durP2;ratioP2;P2;SDS_P1;SDS_P2;PMS_P1;PMS_P2;Temp;Humidity;BMP_temperature;BMP_pressure;BME280_temperature;BME280_humidity;BME280_pressure;Samples;Min_cycle;Max_cycle;Signal;HPM_P1;HPM_P2
2021/12/31 04:03:08;;;;;;;4.75;1.75;;;13.80;84.20;;;;;;5132235;27;20452;-37
2021/12/31 04:05:38;;;;;;;1.98;1.63;;;13.80;84.00;;;;;;5132199;28;20031;-38
2021/12/31 04:08:04;;;;;;;;;;;13.80;84.00;;;;;;5132315;28;20019;-37
2021/12/31 04:10:30;;;;;;;2.28;1.15;;;13.90;83.60;;;;;;5131372;28;19917;-37
2021/12/31 04:12:56;;;;;;;5.93;1.80;;;14.00;83.20;;;;;;5131157;28;20027;-38
2021/12/31 04:15:23;;;;;;;5.05;1.80;;;14.00;83.00;;;;;;5131244;28;20031;-37
2021/12/31 04:17:48;;;;;;;7.28;2.08;;;14.00;82.90;;;;;;5131466;28;20114;-37
2021/12/31 04:20:20;;;;;;;5.13;2.05;;;13.90;83.10;;;;;;5131434;28;20066;-37
2021/12/31 04:22:55;;;;;;;3.40;1.48;;;14.00;83.00;;;;;;5131971;28;20031;-37
2021/12/31 04:25:22;;;;;;;2.42;1.42;;;14.00;83.00;;;;;;5132318;28;20043;-37
2021/12/31 04:27:48;;;;;;;4.90;1.80;;;14.00;82.90;;;;;;5131633;28;20020;-38
2021/12/31 04:30:14;;;;;;;3.90;1.83;;;14.00;82.80;;;;;;5131624;28;20486;-38
2021/12/31 04:32:40;;;;;;;1.70;1.60;;;14.00;82.70;;;;;;5113675;28;20023;-37
2021/12/31 04:35:07;;;;;;;3.22;1.55;;;14.00;82.50;;;;;;5132080;28;20073;-37
2021/12/31 04:37:33;;;;;;;20.30;4.57;;;14.00;82.80;;;;;;5131789;28;20051;-36
2021/12/31 04:39:59;;;;;;;5.20;2.17;;;14.00;82.90;;;;;;5131520;28;20031;-37
2021/12/31 04:42:24;;;;;;;3.17;1.90;;;14.00;82.70;;;;;;5131726;28;20107;-37
2021/12/31 04:44:50;;;;;;;5.13;1.25;;;14.00;82.50;;;;;;5131112;28;20027;-37
2021/12/31 04:47:16;;;;;;;9.70;2.33;;;14.00;82.50;;;;;;5131390;28;20034;-36
2021/12/31 04:49:44;;;;;;;3.17;1.58;;;14.10;82.30;;;;;;5131560;28;20024;-42
2021/12/31 04:52:09;;;;;;;6.35;1.50;;;14.00;82.40;;;;;;5131533;28;20072;-37
2021/12/31 04:54:35;;;;;;;2.63;1.33;;;14.00;82.40;;;;;;5131505;28;20035;-37
2021/12/31 04:57:02;;;;;;;5.60;1.50;;;14.00;82.20;;;;;;5131583;28;20478;-37
2021/12/31 04:59:28;;;;;;;7.28;2.10;;;14.00;82.40;;;;;;5130877;28;20032;-37
2021/12/31 05:01:54;;;;;;;3.63;1.88;;;14.00;82.40;;;;;;5131223;28;20121;-37
2021/12/31 05:04:19;;;;;;;3.72;1.33;;;14.10;82.00;;;;;;5130224;28;20024;-37
2021/12/31 05:06:47;;;;;;;8.43;1.80;;;14.10;82.30;;;;;;5130475;28;20110;-37
2021/12/31 05:09:13;;;;;;;2.78;1.92;;;14.00;82.40;;;;;;5130892;28;20027;-39
2021/12/31 05:11:39;;;;;;;2.90;1.25;;;14.10;81.90;;;;;;5131136;28;20478;-37
2021/12/31 05:14:05;;;;;;;1.70;1.10;;;14.00;82.20;;;;;;5120223;28;20039;-37
2021/12/31 05:16:31;;;;;;;3.67;1.52;;;14.00;82.40;;;;;;5116960;28;20425;-37
2021/12/31 05:18:57;;;;;;;4.40;1.60;;;14.20;81.50;;;;;;5117698;28;20028;-37
2021/12/31 05:21:22;;;;;;;3.20;1.75;;;14.10;81.80;;;;;;5117764;28;20111;-38
2021/12/31 05:23:48;;;;;;;5.88;1.55;;;14.20;81.70;;;;;;5117216;28;20023;-37
2021/12/31 05:26:14;;;;;;;10.23;2.47;;;14.20;81.50;;;;;;5116617;28;20026;-37
2021/12/31 05:28:39;;;;;;;3.00;0.98;;;14.10;81.70;;;;;;5117136;28;20099;-37
2021/12/31 05:31:06;;;;;;;5.40;1.27;;;14.00;81.90;;;;;;5117192;28;20031;-38
2021/12/31 05:33:33;;;;;;;4.00;1.13;;;14.10;81.80;;;;;;5118135;28;20107;-37
2021/12/31 05:36:00;;;;;;;4.43;1.20;;;14.10;81.80;;;;;;5116145;28;20023;-37
2021/12/31 05:38:26;;;;;;;2.95;1.55;;;14.00;81.80;;;;;;5117383;28;20023;-37
2021/12/31 05:40:51;;;;;;;7.63;1.40;;;14.00;82.10;;;;;;5116362;28;20344;-37
2021/12/31 05:43:17;;;;;;;3.85;1.42;;;14.10;81.60;;;;;;5117088;28;20145;-37
2021/12/31 05:45:43;;;;;;;9.52;1.70;;;14.10;81.60;;;;;;5117293;28;20015;-38
2021/12/31 05:48:08;;;;;;;3.50;1.55;;;14.10;81.80;;;;;;5116569;28;20049;-37
2021/12/31 05:50:34;;;;;;;8.02;1.25;;;14.00;82.30;;;;;;5117554;28;20031;-37
2021/12/31 05:53:01;;;;;;;2.38;1.40;;;14.00;82.10;;;;;;5116592;28;20030;-37
2021/12/31 05:55:27;;;;;;;2.88;1.60;;;14.10;82.00;;;;;;5117578;28;20050;-37
2021/12/31 05:57:55;;;;;;;7.07;1.80;;;14.10;82.00;;;;;;5115929;28;20031;-37
2021/12/31 06:00:22;;;;;;;7.95;2.45;;;14.00;82.20;;;;;;5097702;28;20431;-37
2021/12/31 06:02:48;;;;;;;8.50;2.28;;;14.10;81.80;;;;;;5115495;28;20403;-37
2021/12/31 06:05:14;;;;;;;3.63;1.50;;;14.20;81.40;;;;;;5116775;28;20028;-37
2021/12/31 06:07:40;;;;;;;12.68;3.42;;;14.20;81.40;;;;;;5115925;28;20605;-37
2021/12/31 06:10:06;;;;;;;5.45;1.90;;;14.10;81.70;;;;;;5115793;28;20024;-37
2021/12/31 06:12:34;;;;;;;5.40;1.85;;;14.00;82.20;;;;;;5115302;28;20094;-37
2021/12/31 06:15:03;;;;;;;4.47;1.52;;;13.90;82.30;;;;;;5116056;28;20463;-38
2021/12/31 06:17:29;;;;;;;3.25;1.52;;;13.90;82.50;;;;;;5115357;28;20030;-38
2021/12/31 06:19:55;;;;;;;4.05;1.50;;;13.90;82.30;;;;;;5115798;28;20446;-37
2021/12/31 06:22:24;;;;;;;3.88;1.50;;;13.90;82.40;;;;;;5117019;28;20023;-37
2021/12/31 06:24:50;;;;;;;2.65;1.40;;;13.90;82.40;;;;;;5095695;28;20468;-38
2021/12/31 06:27:17;;;;;;;3.45;2.28;;;13.90;82.30;;;;;;5115641;28;20051;-37
2021/12/31 06:29:42;;;;;;;5.10;2.13;;;14.00;81.90;;;;;;5116404;28;20024;-38
2021/12/31 06:32:08;;;;;;;7.07;2.00;;;14.10;81.40;;;;;;5115707;28;20027;-37
2021/12/31 06:34:34;;;;;;;5.47;1.80;;;14.10;81.60;;;;;;5115720;28;20023;-38
2021/12/31 06:37:00;;;;;;;5.65;2.40;;;14.10;81.40;;;;;;5115930;28;20027;-38
2021/12/31 06:39:26;;;;;;;6.22;2.58;;;14.00;81.70;;;;;;5116584;28;20488;-37
2021/12/31 06:41:53;;;;;;;3.22;1.85;;;14.10;81.30;;;;;;5114799;28;20027;-38
2021/12/31 06:44:18;;;;;;;4.47;1.88;;;14.00;81.60;;;;;;5115525;28;20108;-38
2021/12/31 06:46:44;;;;;;;3.30;1.65;;;13.80;82.20;;;;;;5115029;28;20055;-38
2021/12/31 06:49:09;;;;;;;3.85;1.83;;;13.80;82.30;;;;;;5114548;28;20077;-38
2021/12/31 06:51:35;;;;;;;5.97;2.00;;;13.80;82.40;;;;;;5115040;28;20020;-38
2021/12/31 06:54:01;;;;;;;2.35;1.42;;;13.80;82.10;;;;;;5115271;28;20077;-37
2021/12/31 06:56:27;;;;;;;5.53;1.55;;;13.80;82.30;;;;;;5114800;28;20027;-37
2021/12/31 06:58:53;;;;;;;3.90;1.70;;;13.80;82.20;;;;;;5115665;28;20028;-38
2021/12/31 07:01:18;;;;;;;1.05;0.93;;;13.80;82.40;;;;;;5114539;28;20395;-38
2021/12/31 07:03:44;;;;;;;4.13;2.30;;;13.70;82.60;;;;;;5115343;28;20023;-37
2021/12/31 07:06:10;;;;;;;2.00;1.48;;;13.70;82.60;;;;;;5115194;28;20364;-38
2021/12/31 07:08:36;;;;;;;4.63;1.42;;;13.80;82.50;;;;;;5115302;28;20027;-37
2021/12/31 07:11:01;;;;;;;3.28;1.27;;;13.70;82.70;;;;;;5096511;28;20031;-38
2021/12/31 07:13:27;;;;;;;5.03;1.40;;;13.70;82.30;;;;;;5114630;28;20380;-38
2021/12/31 07:15:54;;;;;;;2.20;1.38;;;13.70;82.70;;;;;;5113292;28;20169;-38
2021/12/31 07:18:22;;;;;;;1.50;1.40;;;13.70;82.50;;;;;;5114608;28;20019;-38
2021/12/31 07:20:48;;;;;;;2.55;1.48;;;13.60;82.90;;;;;;5114312;28;20038;-38
2021/12/31 07:23:16;;;;;;;4.75;1.30;;;13.60;82.80;;;;;;5114313;28;20102;-38
2021/12/31 07:25:43;;;;;;;9.93;1.95;;;13.60;82.70;;;;;;5114412;28;20027;-38
2021/12/31 07:28:10;;;;;;;3.22;1.50;;;13.70;82.50;;;;;;5114746;28;20016;-38
2021/12/31 07:30:36;;;;;;;1.65;1.30;;;13.60;82.60;;;;;;5113735;28;20024;-38
2021/12/31 07:33:02;;;;;;;4.93;1.27;;;13.50;82.80;;;;;;5114049;28;20093;-37
2021/12/31 07:35:31;;;;;;;1.85;1.13;;;13.50;82.80;;;;;;5095299;28;20027;-38
2021/12/31 07:37:58;;;;;;;8.00;1.85;;;13.50;83.00;;;;;;5114274;28;20567;-38
2021/12/31 07:40:43;;;;;;;4.70;1.65;;;13.40;83.20;;;;;;5113396;28;20026;-38
2021/12/31 07:43:10;;;;;;;1.40;0.90;;;13.30;83.50;;;;;;5114272;28;20202;-38
2021/12/31 07:45:36;;;;;;;9.23;1.63;;;13.30;83.40;;;;;;5113907;28;20119;-38
2021/12/31 07:48:02;;;;;;;6.35;1.50;;;13.30;83.50;;;;;;5114005;28;20020;-38
2021/12/31 07:50:29;;;;;;;2.72;1.35;;;13.30;83.30;;;;;;5114267;28;20103;-38
2021/12/31 07:52:54;;;;;;;2.97;1.75;;;13.30;83.50;;;;;;5114216;28;20356;-38
2021/12/31 07:55:20;;;;;;;4.80;2.13;;;13.30;83.50;;;;;;5114295;28;20020;-38
2021/12/31 07:57:46;;;;;;;3.30;1.52;;;13.30;83.50;;;;;;5113165;28;20084;-38
2021/12/31 08:00:15;;;;;;;2.70;1.13;;;13.30;83.50;;;;;;5114035;28;20441;-38
2021/12/31 14:03:15;;;;;;;7.97;2.78;;;14.00;80.40;;;;;;5133336;27;20114;-38
2021/12/31 14:05:54;;;;;;;3.58;2.58;;;13.90;81.40;;;;;;5130859;28;20134;-37
2021/12/31 14:11:04;;;;;;;5.30;2.30;;;13.50;83.80;;;;;;5132084;27;20030;-37
2021/12/31 14:13:30;;;;;;;5.13;2.35;;;13.40;85.10;;;;;;5131538;27;20408;-39
2021/12/31 14:15:56;;;;;;;3.70;2.22;;;13.40;84.40;;;;;;5132207;27;20041;-37
2021/12/31 14:18:21;;;;;;;4.13;2.53;;;13.60;84.00;;;;;;5131998;27;20042;-37
2021/12/31 14:20:47;;;;;;;2.35;1.63;;;13.60;83.90;;;;;;5131638;27;20072;-37
2021/12/31 14:23:14;;;;;;;8.27;2.60;;;13.60;83.40;;;;;;5129740;28;20034;-40
2021/12/31 14:25:44;;;;;;;5.88;2.97;;;13.70;83.10;;;;;;5131664;27;20020;-38
2021/12/31 14:28:11;;;;;;;6.78;1.98;;;13.70;83.00;;;;;;5131633;27;20053;-37
2021/12/31 14:30:38;;;;;;;2.10;1.83;;;13.70;83.10;;;;;;5129806;28;20032;-38
2021/12/31 14:33:04;;;;;;;2.78;1.83;;;13.70;83.10;;;;;;5131322;27;20023;-38
2021/12/31 14:35:35;;;;;;;7.57;4.40;;;13.80;82.60;;;;;;5129649;27;20023;-38
2021/12/31 14:38:04;;;;;;;4.32;2.13;;;13.80;82.80;;;;;;5132799;27;20022;-38
2021/12/31 14:40:30;;;;;;;8.55;1.73;;;13.80;82.80;;;;;;5129847;28;20073;-37
2021/12/31 14:42:56;;;;;;;7.05;2.50;;;13.80;82.20;;;;;;5136607;27;20079;-37
2021/12/31 14:45:23;;;;;;;6.57;2.30;;;13.90;82.00;;;;;;5135133;27;20047;-37
2021/12/31 14:47:49;;;;;;;6.63;2.97;;;14.00;81.90;;;;;;5130135;27;20020;-37
2021/12/31 14:50:17;;;;;;;6.47;2.72;;;13.90;82.40;;;;;;5131096;27;20392;-37
2021/12/31 14:52:47;;;;;;;14.63;3.25;;;13.90;82.30;;;;;;5130890;27;20484;-37
2021/12/31 14:55:15;;;;;;;8.70;2.90;;;13.90;82.20;;;;;;5131132;27;20375;-38
2021/12/31 14:57:42;;;;;;;5.10;2.63;;;14.00;82.20;;;;;;5130528;27;20041;-38
2021/12/31 15:00:10;;;;;;;5.70;2.30;;;14.00;81.80;;;;;;5130729;27;20475;-37
2021/12/31 15:02:36;;;;;;;5.80;2.33;;;14.00;81.60;;;;;;5130571;27;20456;-38
2021/12/31 15:05:04;;;;;;;3.85;2.03;;;14.00;81.60;;;;;;5131754;27;20020;-38
2021/12/31 15:07:29;;;;;;;7.72;2.53;;;14.00;81.70;;;;;;5130861;27;20035;-38
2021/12/31 15:09:56;;;;;;;7.90;2.33;;;14.00;81.90;;;;;;5130782;27;20467;-37
2021/12/31 15:12:22;;;;;;;5.53;2.63;;;14.00;81.40;;;;;;5128585;27;20023;-37
2021/12/31 15:14:48;;;;;;;6.53;2.53;;;14.00;81.90;;;;;;5116416;28;20031;-38
2021/12/31 15:17:14;;;;;;;8.60;3.20;;;14.00;81.80;;;;;;5116944;28;20035;-37
2021/12/31 15:19:41;;;;;;;5.28;2.78;;;14.00;82.20;;;;;;5117759;28;20387;-38
2021/12/31 15:22:07;;;;;;;12.27;3.50;;;13.90;82.30;;;;;;5116865;28;20116;-37
2021/12/31 15:24:33;;;;;;;6.50;2.60;;;13.90;82.40;;;;;;5116475;28;20031;-38
2021/12/31 15:27:00;;;;;;;5.78;3.35;;;13.90;82.30;;;;;;5115977;28;20015;-37
2021/12/31 15:29:27;;;;;;;4.38;3.35;;;14.00;82.20;;;;;;5115993;28;20073;-38
2021/12/31 15:31:53;;;;;;;7.43;3.47;;;14.00;82.30;;;;;;5116057;27;20030;-37
2021/12/31 15:34:18;;;;;;;4.47;2.78;;;14.00;82.10;;;;;;5116469;28;20396;-44
2021/12/31 15:36:44;;;;;;;6.82;3.00;;;14.00;82.30;;;;;;5116701;28;20061;-38
2021/12/31 15:39:11;;;;;;;10.63;3.20;;;13.90;82.70;;;;;;5114672;28;20020;-38
2021/12/31 15:41:44;;;;;;;4.93;3.05;;;13.80;82.90;;;;;;5115666;28;20031;-38
2021/12/31 15:44:11;;;;;;;4.80;2.67;;;13.90;83.50;;;;;;5116075;28;20091;-37
2021/12/31 15:46:40;;;;;;;6.53;3.33;;;13.90;83.10;;;;;;5115689;28;20102;-38
2021/12/31 15:49:07;;;;;;;5.20;3.67;;;13.90;83.10;;;;;;5116260;27;20446;-38
2021/12/31 15:51:35;;;;;;;8.80;3.75;;;13.90;83.20;;;;;;5116134;28;20137;-38
2021/12/31 15:54:01;;;;;;;6.97;2.92;;;14.00;83.00;;;;;;5116186;28;20036;-38
2021/12/31 15:56:27;;;;;;;10.00;4.25;;;13.90;82.80;;;;;;5116021;28;20081;-38
2021/12/31 15:58:54;;;;;;;6.88;3.97;;;14.00;83.00;;;;;;5116497;28;20023;-38
2021/12/31 16:01:21;;;;;;;6.25;3.40;;;14.00;83.00;;;;;;5115587;28;20043;-38
2021/12/31 16:03:47;;;;;;;8.70;3.88;;;13.90;83.30;;;;;;5116258;28;20062;-38
2021/12/31 16:06:13;;;;;;;5.68;3.25;;;14.00;83.20;;;;;;5114991;28;20051;-38
2021/12/31 16:08:38;;;;;;;8.55;3.65;;;14.00;83.30;;;;;;5114045;28;20031;-38
2021/12/31 16:11:04;;;;;;;8.50;3.78;;;14.00;83.10;;;;;;5115548;28;20072;-39
2021/12/31 16:13:30;;;;;;;11.15;3.80;;;14.00;83.30;;;;;;5115607;28;20023;-38
2021/12/31 16:15:56;;;;;;;7.47;3.35;;;13.90;83.40;;;;;;5115789;28;20439;-38
2021/12/31 16:18:22;;;;;;;9.23;3.63;;;13.90;83.40;;;;;;5116348;28;20470;-38
2021/12/31 16:20:47;;;;;;;6.18;3.63;;;13.90;83.80;;;;;;5115197;28;20055;-38
2021/12/31 16:23:13;;;;;;;8.65;5.25;;;13.80;83.60;;;;;;5114856;28;20319;-38
2021/12/31 16:25:39;;;;;;;9.43;4.22;;;13.90;83.60;;;;;;5114344;28;20020;-38
2021/12/31 16:28:05;;;;;;;6.47;4.25;;;13.90;83.60;;;;;;5114809;28;20047;-38
2021/12/31 16:30:32;;;;;;;8.98;4.55;;;13.90;84.00;;;;;;5115467;28;20487;-37
2021/12/31 16:32:58;;;;;;;7.57;4.65;;;13.80;84.10;;;;;;5115452;28;20027;-37
2021/12/31 16:35:23;;;;;;;5.75;3.63;;;13.80;84.20;;;;;;5115132;28;20134;-37
2021/12/31 16:37:49;;;;;;;8.13;4.43;;;13.80;84.40;;;;;;5115415;28;20073;-38
2021/12/31 16:40:20;;;;;;;4.25;3.15;;;13.90;84.10;;;;;;5115507;28;20152;-38
2021/12/31 16:42:46;;;;;;;7.38;4.47;;;13.80;84.30;;;;;;5115479;28;20467;-37
2021/12/31 16:45:12;;;;;;;6.82;4.25;;;13.80;84.30;;;;;;5115698;28;20024;-38
2021/12/31 16:47:39;;;;;;;6.82;4.03;;;13.80;84.50;;;;;;5113581;28;20034;-38
2021/12/31 16:50:06;;;;;;;7.20;5.10;;;13.80;84.60;;;;;;5115212;28;20016;-38
2021/12/31 16:52:31;;;;;;;10.02;4.55;;;13.80;84.80;;;;;;5115614;28;20035;-39
2021/12/31 16:54:59;;;;;;;7.53;4.28;;;13.80;84.80;;;;;;5114845;28;20099;-38
2021/12/31 16:57:26;;;;;;;8.45;4.72;;;13.70;85.00;;;;;;5115192;28;20072;-38
2021/12/31 17:00:01;;;;;;;11.70;6.05;;;13.60;85.40;;;;;;5114983;28;20486;-38
2021/12/31 17:02:27;;;;;;;6.88;5.25;;;13.70;85.50;;;;;;5115393;28;20056;-39
2021/12/31 17:04:52;;;;;;;10.18;6.38;;;13.60;86.20;;;;;;5115101;28;20103;-37
2021/12/31 17:07:18;;;;;;;11.68;5.88;;;13.60;86.40;;;;;;5115632;28;20023;-38
2021/12/31 17:09:44;;;;;;;11.77;5.70;;;13.50;86.60;;;;;;5115887;28;20053;-38
2021/12/31 17:12:10;;;;;;;21.55;13.50;;;13.50;86.90;;;;;;5115251;28;20035;-38
2021/12/31 17:14:35;;;;;;;7.70;4.97;;;13.40;87.40;;;;;;5113675;28;20068;-37
2021/12/31 17:17:01;;;;;;;11.00;5.72;;;13.30;87.80;;;;;;5114624;28;20498;-38
2021/12/31 17:19:27;;;;;;;9.90;5.38;;;13.30;87.60;;;;;;5114064;28;20037;-38
2021/12/31 17:21:53;;;;;;;8.45;6.63;;;13.30;88.00;;;;;;5114652;28;20173;-39
2021/12/31 17:24:18;;;;;;;15.48;11.15;;;13.30;88.50;;;;;;5115849;28;20118;-38
2021/12/31 17:26:44;;;;;;;18.33;10.65;;;13.20;88.90;;;;;;5115222;28;20043;-38
2021/12/31 17:29:10;;;;;;;12.98;7.85;;;13.10;89.20;;;;;;5114499;28;20042;-38
2021/12/31 17:31:36;;;;;;;10.18;7.05;;;13.10;89.60;;;;;;5114996;28;20333;-44
2021/12/31 17:34:01;;;;;;;12.18;7.82;;;13.00;90.10;;;;;;5114848;28;20027;-37
2021/12/31 17:36:27;;;;;;;13.35;7.90;;;13.00;90.30;;;;;;5114125;28;20471;-38
2021/12/31 17:38:53;;;;;;;15.15;8.70;;;12.90;90.30;;;;;;5114058;28;20396;-38
2021/12/31 17:41:19;;;;;;;13.35;7.88;;;13.00;90.00;;;;;;5113701;28;20151;-38
2021/12/31 17:43:44;;;;;;;15.00;8.88;;;13.10;89.60;;;;;;5114900;28;20024;-37
2021/12/31 17:46:10;;;;;;;15.80;8.38;;;13.10;89.40;;;;;;5114214;28;20077;-38
2021/12/31 17:48:38;;;;;;;10.68;8.50;;;13.20;88.80;;;;;;5112818;28;20080;-48
2021/12/31 17:51:05;;;;;;;9.27;7.55;;;13.20;88.90;;;;;;5114201;28;20035;-50
2021/12/31 17:53:31;;;;;;;15.77;7.78;;;13.20;88.70;;;;;;5114628;28;20032;-48
2021/12/31 17:55:56;;;;;;;14.35;8.48;;;13.20;88.50;;;;;;5114303;28;20040;-49
2021/12/31 17:58:24;;;;;;;14.95;8.43;;;13.20;88.60;;;;;;5113166;28;20024;-49
2021/12/31 18:00:50;;;;;;;12.30;7.75;;;13.30;88.30;;;;;;5114207;28;20502;-50
2021/12/31 18:03:16;;;;;;;11.07;7.22;;;13.30;87.80;;;;;;5115342;28;20062;-48
2021/12/31 18:05:41;;;;;;;17.40;7.90;;;13.30;87.90;;;;;;5114579;28;20165;-50
2021/12/31 18:08:07;;;;;;;10.45;7.38;;;13.30;87.40;;;;;;5114923;28;20024;-49
2021/12/31 18:10:32;;;;;;;13.38;7.15;;;13.40;87.40;;;;;;5114661;28;20508;-48
2021/12/31 18:12:58;;;;;;;12.43;7.95;;;13.40;87.20;;;;;;5114274;28;20024;-49
2021/12/31 18:15:24;;;;;;;10.90;7.35;;;13.40;86.90;;;;;;5114386;28;20084;-48
2021/12/31 18:17:49;;;;;;;7.47;5.50;;;13.50;86.70;;;;;;5114096;28;20035;-49
2021/12/31 18:20:16;;;;;;;10.93;7.53;;;13.40;86.70;;;;;;5114357;28;20115;-49
2021/12/31 18:22:42;;;;;;;11.68;7.30;;;13.50;86.70;;;;;;5114745;28;20032;-50
2021/12/31 18:25:08;;;;;;;13.63;8.23;;;13.50;86.70;;;;;;5113271;28;20027;-48
2021/12/31 18:27:34;;;;;;;12.02;7.00;;;13.50;86.60;;;;;;5114268;28;20020;-52
2021/12/31 18:29:59;;;;;;;12.90;6.95;;;13.40;86.60;;;;;;5113623;28;20023;-49
2021/12/31 18:32:25;;;;;;;13.23;7.68;;;13.50;86.90;;;;;;5113767;28;20332;-50
2021/12/31 18:34:51;;;;;;;16.63;8.93;;;13.40;87.00;;;;;;5113870;28;20030;-48
2021/12/31 18:37:16;;;;;;;16.58;7.15;;;13.40;87.20;;;;;;5113696;28;20099;-49
2021/12/31 18:39:42;;;;;;;11.50;7.07;;;13.40;87.30;;;;;;5112147;28;20027;-51
2021/12/31 18:42:08;;;;;;;11.43;6.53;;;13.30;87.30;;;;;;5115163;28;20075;-47
2021/12/31 18:44:34;;;;;;;10.95;6.72;;;13.40;87.00;;;;;;5114671;28;20024;-48
2021/12/31 18:49:38;;;;;;;12.10;6.88;;;13.50;86.40;;;;;;5117901;28;20073;-50
2021/12/31 18:52:05;;;;;;;10.35;6.65;;;13.50;86.50;;;;;;5117882;28;20023;-52
2021/12/31 18:54:34;;;;;;;12.63;6.28;;;13.60;86.20;;;;;;5118801;28;20024;-48
2021/12/31 18:57:00;;;;;;;13.45;7.88;;;13.60;86.20;;;;;;5119917;28;20081;-49
2021/12/31 18:59:25;;;;;;;14.05;7.00;;;13.60;86.20;;;;;;5121155;28;20024;-51
2021/12/31 19:01:51;;;;;;;8.95;5.93;;;13.50;86.40;;;;;;5117274;28;20039;-49
2021/12/31 19:04:17;;;;;;;13.57;7.53;;;13.60;86.40;;;;;;5117756;28;20061;-50
2021/12/31 19:06:42;;;;;;;11.15;7.25;;;13.50;86.70;;;;;;5117273;28;20020;-49
2021/12/31 19:09:08;;;;;;;11.00;7.65;;;13.50;86.90;;;;;;5117474;28;20023;-48
2021/12/31 19:11:33;;;;;;;12.35;8.52;;;13.50;87.00;;;;;;5116447;28;20046;-51
2021/12/31 19:13:59;;;;;;;13.82;7.22;;;13.50;86.70;;;;;;5117362;28;20023;-49
2021/12/31 19:16:25;;;;;;;9.45;6.07;;;13.50;86.70;;;;;;5117289;28;20034;-50
2021/12/31 19:18:52;;;;;;;16.73;7.53;;;13.50;86.60;;;;;;5115742;28;20035;-49
2021/12/31 19:21:18;;;;;;;13.98;7.35;;;13.50;86.80;;;;;;5116380;28;20023;-47
2021/12/31 19:23:44;;;;;;;12.07;7.80;;;13.50;86.60;;;;;;5117579;28;20095;-48
2021/12/31 19:26:10;;;;;;;12.15;7.38;;;13.50;86.90;;;;;;5116968;28;20398;-48
2021/12/31 19:28:37;;;;;;;14.13;7.53;;;13.50;86.90;;;;;;5116862;28;20020;-49
2021/12/31 19:31:03;;;;;;;11.60;6.88;;;13.50;86.70;;;;;;5117065;28;20055;-51
2021/12/31 19:33:29;;;;;;;15.32;8.45;;;13.50;87.10;;;;;;5117876;28;20028;-49
2021/12/31 19:35:54;;;;;;;24.67;9.30;;;13.50;87.10;;;;;;5116760;28;20020;-48
2021/12/31 19:38:20;;;;;;;13.40;7.50;;;13.40;87.20;;;;;;5117464;28;20027;-51
2021/12/31 19:40:47;;;;;;;15.02;7.47;;;13.50;86.90;;;;;;5117914;28;20031;-50
2021/12/31 19:43:13;;;;;;;10.40;7.60;;;13.50;87.30;;;;;;5116401;28;20413;-48
2021/12/31 19:45:39;;;;;;;9.68;6.63;;;13.50;87.20;;;;;;5116977;28;20034;-50
2021/12/31 19:48:07;;;;;;;13.55;7.60;;;13.50;87.20;;;;;;5115002;28;20106;-48
2021/12/31 19:50:38;;;;;;;12.98;7.47;;;13.50;87.30;;;;;;5115899;28;20077;-48
2021/12/31 19:53:05;;;;;;;9.13;6.53;;;13.50;87.30;;;;;;5116879;28;20054;-49
2021/12/31 19:55:32;;;;;;;14.27;7.90;;;13.50;87.20;;;;;;5117807;27;20036;-49
2021/12/31 19:57:58;;;;;;;9.60;7.25;;;13.40;87.50;;;;;;5117064;28;20030;-50
2021/12/31 20:00:24;;;;;;;9.93;7.32;;;13.40;87.50;;;;;;5117876;28;20027;-48
2021/12/31 20:02:52;;;;;;;11.73;7.88;;;13.40;87.50;;;;;;5116760;28;20100;-52
2021/12/31 20:05:25;;;;;;;11.10;7.75;;;13.40;87.50;;;;;;5115843;28;20028;-48
2021/12/31 20:07:51;;;;;;;10.93;7.18;;;13.40;87.50;;;;;;5117262;28;20149;-49
2021/12/31 20:10:17;;;;;;;14.13;8.18;;;13.40;87.80;;;;;;5117303;28;20066;-51
2021/12/31 20:12:48;;;;;;;11.65;8.32;;;13.50;87.70;;;;;;5116137;28;20027;-47
2021/12/31 20:15:15;;;;;;;10.35;7.32;;;13.40;87.60;;;;;;5115420;28;20032;-47
2021/12/31 20:17:42;;;;;;;16.20;9.25;;;13.50;87.40;;;;;;5116602;28;20444;-51
2021/12/31 20:20:10;;;;;;;13.68;8.13;;;13.50;87.50;;;;;;5116301;28;20467;-48
2021/12/31 20:22:37;;;;;;;14.43;8.15;;;13.50;87.70;;;;;;5114659;28;20050;-48
2021/12/31 20:25:04;;;;;;;14.30;7.13;;;13.40;87.80;;;;;;5115698;28;20034;-50
2021/12/31 20:27:31;;;;;;;12.60;8.10;;;13.40;87.90;;;;;;5115563;28;20011;-49
2021/12/31 20:29:56;;;;;;;14.07;9.05;;;13.40;87.80;;;;;;5115645;28;20038;-49
2021/12/31 20:32:22;;;;;;;14.88;8.85;;;13.40;87.80;;;;;;5115516;28;20106;-50
2021/12/31 20:34:48;;;;;;;12.93;8.85;;;13.40;87.70;;;;;;5115778;28;20020;-48
2021/12/31 20:37:16;;;;;;;15.25;8.68;;;13.40;87.80;;;;;;5115418;28;20043;-49
2021/12/31 20:39:42;;;;;;;12.95;8.07;;;13.50;87.70;;;;;;5115392;28;20031;-48
2021/12/31 20:42:08;;;;;;;16.05;9.68;;;13.40;87.60;;;;;;5116979;28;20046;-50
2021/12/31 20:44:34;;;;;;;14.55;7.65;;;13.40;87.80;;;;;;5116812;28;20016;-50
2021/12/31 20:47:00;;;;;;;11.65;8.07;;;13.50;87.60;;;;;;5116756;28;20471;-51
2021/12/31 20:49:26;;;;;;;15.15;9.35;;;13.50;87.50;;;;;;5116098;28;20019;-48
2021/12/31 20:51:51;;;;;;;14.43;9.20;;;13.50;87.50;;;;;;5115113;28;20019;-49
2021/12/31 20:54:17;;;;;;;15.90;9.15;;;13.40;87.60;;;;;;5114210;28;20498;-51
2021/12/31 20:56:43;;;;;;;16.75;10.57;;;13.40;87.80;;;;;;5115706;28;20118;-48
2021/12/31 20:59:09;;;;;;;15.02;10.05;;;13.40;87.80;;;;;;5116556;28;20030;-48
2021/12/31 21:01:34;;;;;;;14.63;7.78;;;13.40;87.60;;;;;;5114503;28;20111;-53
2021/12/31 21:04:00;;;;;;;16.30;8.88;;;13.40;87.60;;;;;;5114615;28;20058;-48
2021/12/31 21:06:26;;;;;;;18.92;9.15;;;13.40;87.50;;;;;;5115534;28;20054;-50
2021/12/31 21:08:51;;;;;;;11.40;7.10;;;13.40;87.40;;;;;;5116418;28;20064;-48
2021/12/31 21:11:17;;;;;;;13.30;8.38;;;13.40;87.60;;;;;;5116446;28;20023;-48
2021/12/31 21:13:43;;;;;;;11.15;6.93;;;13.40;87.50;;;;;;5115422;28;20055;-49
2021/12/31 21:16:08;;;;;;;16.70;7.90;;;13.50;87.50;;;;;;5115099;28;20020;-49
2021/12/31 21:18:34;;;;;;;16.05;7.47;;;13.40;87.50;;;;;;5115057;28;20027;-49
2021/12/31 21:21:00;;;;;;;19.08;8.75;;;13.40;87.60;;;;;;5115360;28;20482;-50
2021/12/31 21:23:25;;;;;;;15.63;7.57;;;13.40;87.70;;;;;;5114256;28;20029;-49
2021/12/31 21:25:51;;;;;;;10.30;6.95;;;13.40;87.50;;;;;;5113696;28;20114;-49
2021/12/31 21:28:17;;;;;;;11.10;7.07;;;13.40;87.50;;;;;;5115327;28;20025;-48
2021/12/31 21:30:43;;;;;;;11.10;6.38;;;13.50;87.40;;;;;;5115480;28;20020;-49
2021/12/31 21:33:10;;;;;;;12.82;6.40;;;13.40;87.40;;;;;;5114232;27;20051;-51
2021/12/31 21:35:37;;;;;;;13.30;8.48;;;13.40;87.40;;;;;;5081395;28;20122;-49
2021/12/31 21:38:07;;;;;;;13.95;6.75;;;13.50;87.20;;;;;;5116700;28;20024;-49
2021/12/31 21:40:37;;;;;;;13.20;7.63;;;13.50;87.30;;;;;;5115141;28;20055;-51
2021/12/31 21:43:04;;;;;;;13.18;7.25;;;13.50;87.30;;;;;;5114352;28;20092;-52
2021/12/31 21:45:30;;;;;;;7.50;5.75;;;13.40;87.40;;;;;;5113714;28;20494;-53
2021/12/31 21:47:57;;;;;;;16.27;8.00;;;13.40;87.70;;;;;;5115156;28;20076;-51
2021/12/31 21:50:22;;;;;;;11.70;7.07;;;13.40;87.70;;;;;;5115345;28;20024;-51
2021/12/31 21:52:48;;;;;;;13.70;8.40;;;13.50;87.50;;;;;;5115083;28;20364;-49
2021/12/31 21:55:15;;;;;;;15.20;7.45;;;13.50;87.30;;;;;;5114383;28;20027;-51
2021/12/31 21:57:44;;;;;;;13.30;6.50;;;13.40;87.50;;;;;;5114444;28;20047;-50
2021/12/31 22:00:15;;;;;;;16.25;6.97;;;13.50;87.40;;;;;;5116579;28;20028;-49
2021/12/31 22:02:41;;;;;;;13.30;6.95;;;13.40;87.70;;;;;;5114711;28;20063;-47
2021/12/31 22:05:07;;;;;;;15.35;7.25;;;13.40;87.50;;;;;;5114934;28;20439;-52
2021/12/31 22:07:33;;;;;;;13.68;7.18;;;13.50;87.20;;;;;;5115421;28;20016;-49
2021/12/31 22:09:59;;;;;;;15.27;8.60;;;13.40;87.30;;;;;;5114429;28;20073;-48
2021/12/31 22:12:24;;;;;;;13.18;5.60;;;13.40;87.40;;;;;;5113120;28;20027;-49
2021/12/31 22:14:50;;;;;;;16.48;6.75;;;13.40;87.40;;;;;;5114875;28;20023;-49
2021/12/31 22:17:17;;;;;;;13.23;5.82;;;13.50;87.30;;;;;;5114937;28;20031;-50
2021/12/31 22:19:46;;;;;;;14.80;6.10;;;13.40;87.40;;;;;;5113746;28;20019;-49
2021/12/31 22:22:12;;;;;;;16.92;7.28;;;13.40;87.40;;;;;;5114718;28;20028;-48
2021/12/31 22:24:38;;;;;;;11.13;6.03;;;13.40;87.30;;;;;;5118188;28;20027;-51
2021/12/31 22:27:05;;;;;;;13.82;6.13;;;13.40;87.40;;;;;;5119589;28;20102;-49
2021/12/31 22:29:32;;;;;;;13.93;8.60;;;13.40;87.50;;;;;;5118179;28;20465;-49
2021/12/31 22:31:58;;;;;;;15.60;8.02;;;13.40;87.50;;;;;;5118836;28;20027;-51
2021/12/31 22:34:24;;;;;;;11.73;6.68;;;13.40;87.30;;;;;;5118165;28;20034;-51
2021/12/31 22:36:51;;;;;;;12.15;5.50;;;13.40;87.40;;;;;;5119370;28;20038;-48
2021/12/31 22:39:18;;;;;;;14.25;6.65;;;13.40;87.30;;;;;;5119772;28;20053;-50
2021/12/31 22:41:44;;;;;;;14.68;6.60;;;13.40;87.60;;;;;;5118239;28;20031;-48
2021/12/31 22:44:10;;;;;;;14.60;7.60;;;13.40;87.60;;;;;;5120181;28;20023;-52
2021/12/31 22:46:36;;;;;;;9.90;7.00;;;13.40;87.40;;;;;;5117721;28;20106;-50